Time,TemperatureF,DewpointF,PressureIn,WindDirection,WindDirectionDegrees,WindSpeedMPH,WindSpeedGustMPH,Humidity,HourlyPrecipIn,Conditions,Clouds,dailyrainin,SoftwareType,DateUTC
2013-08-25 00:10:00,78.3,72.0,29.79,SE,134,10.0,14.0,80,0.00,,,0.00,weatherlink.com 1.10,2013-08-25 05:10:00,
2013-08-25 00:25:00,78.0,72.0,29.79,SSE,150,10.0,15.0,81,0.00,,,0.00,weatherlink.com 1.10,2013-08-25 05:25:00,
2013-08-25 00:40:00,77.7,71.0,29.79,SSE,150,12.0,14.0,81,0.00,,,0.00,weatherlink.com 1.10,2013-08-25 05:40:00,
2013-08-25 00:55:00,77.3,71.0,29.79,SSE,149,8.0,16.0,82,0.00,,,0.00,weatherlink.com 1.10,2013-08-25 05:55:00,
2013-08-25 01:10:00,77.0,72.0,29.79,SSE,153,11.0,16.0,83,0.00,,,0.00,weatherlink.com 1.10,2013-08-25 06:10:00,
2013-08-25 01:25:00,76.8,71.0,29.79,SSE,150,11.0,16.0,83,0.00,,,0.00,weatherlink.com 1.10,2013-08-25 06:25:00,
2013-08-25 01:40:00,76.5,71.0,29.80,SSE,152,11.0,16.0,84,0.00,,,0.00,weatherlink.com 1.10,2013-08-25 06:40:00,
2013-08-25 01:55:00,76.3,71.0,29.79,South,177,9.0,16.0,84,0.00,,,0.00,weatherlink.com 1.10,2013-08-25 06:55:00,
2013-08-25 02:10:00,76.2,71.0,29.79,SSE,155,13.0,16.0,84,0.00,,,0.00,weatherlink.com 1.10,2013-08-25 07:10:00,
2013-08-25 02:25:00,76.2,71.0,29.80,ESE,118,13.0,15.0,84,0.00,,,0.00,weatherlink.com 1.10,2013-08-25 07:25:00,
2013-08-25 02:40:00,76.2,71.0,29.80,SSE,152,8.0,15.0,84,0.00,,,0.00,weatherlink.com 1.10,2013-08-25 07:40:00,
2013-08-25 02:56:00,76.2,71.0,29.80,South,188,8.0,14.0,84,0.00,,,0.00,weatherlink.com 1.10,2013-08-25 07:56:00,
2013-08-25 03:10:00,75.9,71.0,29.81,South,191,5.0,14.0,84,0.00,,,0.00,weatherlink.com 1.10,2013-08-25 08:10:00,
2013-08-25 03:25:00,75.7,71.0,29.81,SSE,160,7.0,15.0,84,0.00,,,0.00,weatherlink.com 1.10,2013-08-25 08:25:00,
2013-08-25 03:40:00,75.5,71.0,29.81,SSW,197,7.0,12.0,85,0.00,,,0.00,weatherlink.com 1.10,2013-08-25 08:40:00,
2013-08-25 03:55:00,75.4,71.0,29.81,SSE,158,4.0,13.0,85,0.00,,,0.00,weatherlink.com 1.10,2013-08-25 08:55:00,
2013-08-25 04:10:00,75.3,71.0,29.82,SSW,204,8.0,11.0,85,0.00,,,0.00,weatherlink.com 1.10,2013-08-25 09:10:00,
2013-08-25 04:25:00,75.0,70.0,29.82,SE,141,3.0,12.0,85,0.00,,,0.00,weatherlink.com 1.10,2013-08-25 09:25:00,
2013-08-25 04:40:00,74.6,70.0,29.83,SSE,155,3.0,9.0,86,0.00,,,0.00,weatherlink.com 1.10,2013-08-25 09:40:00,
2013-08-25 04:55:00,74.4,70.0,29.83,SSE,157,4.0,7.0,86,0.00,,,0.00,weatherlink.com 1.10,2013-08-25 09:55:00,
2013-08-25 05:10:00,74.1,70.0,29.83,SSE,162,5.0,8.0,87,0.00,,,0.00,weatherlink.com 1.10,2013-08-25 10:10:00,
2013-08-25 05:25:00,74.0,70.0,29.83,SSE,153,8.0,9.0,87,0.00,,,0.00,weatherlink.com 1.10,2013-08-25 10:25:00,
2013-08-25 05:40:00,74.1,70.0,29.83,South,183,8.0,9.0,87,0.00,,,0.00,weatherlink.com 1.10,2013-08-25 10:40:00,
2013-08-25 05:55:00,73.9,70.0,29.83,SE,135,3.0,9.0,87,0.00,,,0.00,weatherlink.com 1.10,2013-08-25 10:55:00,
2013-08-25 06:10:00,73.7,70.0,29.84,SSE,151,4.0,6.0,87,0.00,,,0.00,weatherlink.com 1.10,2013-08-25 11:10:00,
2013-08-25 06:25:00,73.6,70.0,29.84,South,179,5.0,10.0,88,0.00,,,0.00,weatherlink.com 1.10,2013-08-25 11:25:00,
2013-08-25 06:40:00,73.5,70.0,29.84,SSE,155,3.0,9.0,88,0.00,,,0.00,weatherlink.com 1.10,2013-08-25 11:40:00,
2013-08-25 06:56:00,73.3,70.0,29.85,SE,136,7.0,8.0,88,0.00,,,0.00,weatherlink.com 1.10,2013-08-25 11:56:00,
2013-08-25 07:11:00,73.7,70.0,29.85,SE,141,3.0,8.0,88,0.00,,,0.00,weatherlink.com 1.10,2013-08-25 12:11:00,
2013-08-25 07:26:00,74.3,70.0,29.85,SE,145,7.0,12.0,87,0.00,,,0.00,weatherlink.com 1.10,2013-08-25 12:26:00,
2013-08-25 07:41:00,75.0,71.0,29.85,SE,145,5.0,11.0,86,0.00,,,0.00,weatherlink.com 1.10,2013-08-25 12:41:00,
2013-08-25 07:56:00,75.7,71.0,29.85,South,174,3.0,12.0,84,0.00,,,0.00,weatherlink.com 1.10,2013-08-25 12:56:00,
2013-08-25 08:11:00,76.4,71.0,29.85,SSE,160,5.0,13.0,83,0.00,,,0.00,weatherlink.com 1.10,2013-08-25 13:11:00,
2013-08-25 08:26:00,77.2,71.0,29.85,SSW,193,4.0,11.0,82,0.00,,,0.00,weatherlink.com 1.10,2013-08-25 13:26:00,
2013-08-25 08:41:00,78.6,72.0,29.85,SSE,160,4.0,11.0,79,0.00,,,0.00,weatherlink.com 1.10,2013-08-25 13:41:00,
2013-08-25 08:56:00,79.4,72.0,29.85,SE,129,5.0,13.0,77,0.00,,,0.00,weatherlink.com 1.10,2013-08-25 13:56:00,
2013-08-25 09:11:00,80.2,72.0,29.85,SSE,163,1.0,12.0,76,0.00,,,0.00,weatherlink.com 1.10,2013-08-25 14:11:00,
2013-08-25 09:26:00,80.9,73.0,29.84,SE,141,6.0,15.0,76,0.00,,,0.00,weatherlink.com 1.10,2013-08-25 14:26:00,
2013-08-25 09:41:00,81.9,72.0,29.84,SSE,149,8.0,13.0,73,0.00,,,0.00,weatherlink.com 1.10,2013-08-25 14:41:00,
2013-08-25 09:56:00,82.5,73.0,29.83,South,172,7.0,16.0,72,0.00,,,0.00,weatherlink.com 1.10,2013-08-25 14:56:00,
2013-08-25 10:11:00,83.1,73.0,29.84,SSW,204,11.0,16.0,72,0.00,,,0.00,weatherlink.com 1.10,2013-08-25 15:11:00,
2013-08-25 10:26:00,84.4,74.0,29.84,South,177,10.0,13.0,71,0.00,,,0.00,weatherlink.com 1.10,2013-08-25 15:26:00,
2013-08-25 10:41:00,85.0,73.0,29.83,South,174,10.0,14.0,68,0.00,,,0.00,weatherlink.com 1.10,2013-08-25 15:41:00,
2013-08-25 10:56:00,86.0,74.0,29.83,SSE,167,6.0,12.0,68,0.00,,,0.00,weatherlink.com 1.10,2013-08-25 15:56:00,
2013-08-25 11:11:00,87.6,74.0,29.83,South,176,8.0,12.0,64,0.00,,,0.00,weatherlink.com 1.10,2013-08-25 16:11:00,
2013-08-25 11:26:00,88.2,74.0,29.82,SSE,159,5.0,14.0,63,0.00,,,0.00,weatherlink.com 1.10,2013-08-25 16:26:00,
2013-08-25 11:41:00,89.0,74.0,29.82,SE,145,8.0,15.0,62,0.00,,,0.00,weatherlink.com 1.10,2013-08-25 16:41:00,
2013-08-25 11:56:00,89.7,74.0,29.82,SE,143,5.0,18.0,60,0.00,,,0.00,weatherlink.com 1.10,2013-08-25 16:56:00,
2013-08-25 12:11:00,90.7,75.0,29.82,SSW,204,4.0,13.0,60,0.00,,,0.00,weatherlink.com 1.10,2013-08-25 17:11:00,
2013-08-25 12:27:00,90.9,74.0,29.81,SE,141,6.0,14.0,58,0.00,,,0.00,weatherlink.com 1.10,2013-08-25 17:27:00,
2013-08-25 12:41:00,91.5,74.0,29.80,SSW,207,6.0,14.0,57,0.00,,,0.00,weatherlink.com 1.10,2013-08-25 17:41:00,
2013-08-25 12:56:00,91.8,75.0,29.80,South,183,5.0,15.0,58,0.00,,,0.00,weatherlink.com 1.10,2013-08-25 17:56:00,
2013-08-25 13:11:00,92.0,75.0,29.80,SSW,205,7.0,16.0,57,0.00,,,0.00,weatherlink.com 1.10,2013-08-25 18:11:00,
2013-08-25 13:26:00,92.5,74.0,29.79,SE,124,5.0,18.0,55,0.00,,,0.00,weatherlink.com 1.10,2013-08-25 18:26:00,
2013-08-25 13:41:00,93.2,74.0,29.79,SE,134,4.0,16.0,54,0.00,,,0.00,weatherlink.com 1.10,2013-08-25 18:41:00,
2013-08-25 13:57:00,93.2,74.0,29.79,SE,141,6.0,17.0,54,0.00,,,0.00,weatherlink.com 1.10,2013-08-25 18:57:00,
2013-08-25 14:12:00,93.7,75.0,29.79,SSW,211,7.0,17.0,54,0.00,,,0.00,weatherlink.com 1.10,2013-08-25 19:12:00,
2013-08-25 14:27:00,94.0,74.0,29.78,SSW,192,9.0,18.0,52,0.00,,,0.00,weatherlink.com 1.10,2013-08-25 19:27:00,
2013-08-25 14:42:00,94.1,73.0,29.78,South,182,11.0,17.0,51,0.00,,,0.00,weatherlink.com 1.10,2013-08-25 19:42:00,
2013-08-25 14:57:00,94.7,74.0,29.78,SSW,201,8.0,16.0,51,0.00,,,0.00,weatherlink.com 1.10,2013-08-25 19:57:00,
2013-08-25 15:12:00,94.7,75.0,29.77,SE,133,5.0,15.0,53,0.00,,,0.00,weatherlink.com 1.10,2013-08-25 20:12:00,
2013-08-25 15:27:00,94.8,75.0,29.77,SSE,158,9.0,14.0,52,0.00,,,0.00,weatherlink.com 1.10,2013-08-25 20:27:00,
2013-08-25 15:42:00,94.8,75.0,29.77,SSW,212,10.0,15.0,53,0.00,,,0.00,weatherlink.com 1.10,2013-08-25 20:42:00,
2013-08-25 15:57:00,95.1,75.0,29.76,SE,143,14.0,18.0,52,0.00,,,0.00,weatherlink.com 1.10,2013-08-25 20:57:00,
2013-08-25 16:12:00,94.9,75.0,29.77,South,176,15.0,17.0,53,0.00,,,0.00,weatherlink.com 1.10,2013-08-25 21:12:00,
2013-08-25 16:27:00,94.5,74.0,29.76,South,180,6.0,15.0,52,0.00,,,0.00,weatherlink.com 1.10,2013-08-25 21:27:00,
2013-08-25 16:42:00,94.5,74.0,29.77,SSW,193,8.0,17.0,51,0.00,,,0.00,weatherlink.com 1.10,2013-08-25 21:42:00,
2013-08-25 16:57:00,94.8,75.0,29.76,SE,143,11.0,12.0,53,0.00,,,0.00,weatherlink.com 1.10,2013-08-25 21:57:00,
2013-08-25 17:12:00,94.1,75.0,29.76,South,180,6.0,14.0,54,0.00,,,0.00,weatherlink.com 1.10,2013-08-25 22:12:00,
2013-08-25 17:27:00,93.8,75.0,29.76,SSE,167,9.0,15.0,55,0.00,,,0.00,weatherlink.com 1.10,2013-08-25 22:27:00,
2013-08-25 17:42:00,93.2,75.0,29.76,SSE,160,11.0,17.0,56,0.00,,,0.00,weatherlink.com 1.10,2013-08-25 22:42:00,
2013-08-25 17:57:00,92.9,76.0,29.76,SSE,160,9.0,15.0,58,0.00,,,0.00,weatherlink.com 1.10,2013-08-25 22:57:00,
2013-08-25 18:12:00,92.4,76.0,29.77,SSE,148,5.0,15.0,59,0.00,,,0.00,weatherlink.com 1.10,2013-08-25 23:12:00,
2013-08-25 18:27:00,91.6,77.0,29.76,South,170,5.0,11.0,62,0.00,,,0.00,weatherlink.com 1.10,2013-08-25 23:27:00,
2013-08-25 18:42:00,90.6,76.0,29.76,SSE,167,6.0,16.0,63,0.00,,,0.00,weatherlink.com 1.10,2013-08-25 23:42:00,
2013-08-25 18:57:00,89.8,77.0,29.76,SE,145,12.0,13.0,65,0.00,,,0.00,weatherlink.com 1.10,2013-08-25 23:57:00,
2013-08-25 19:12:00,88.9,77.0,29.75,South,171,11.0,13.0,67,0.00,,,0.00,weatherlink.com 1.10,2013-08-26 00:12:00,
2013-08-25 19:27:00,88.1,76.0,29.76,SSE,156,11.0,14.0,68,0.00,,,0.00,weatherlink.com 1.10,2013-08-26 00:27:00,
2013-08-25 19:42:00,87.5,75.0,29.76,South,173,5.0,14.0,67,0.00,,,0.00,weatherlink.com 1.10,2013-08-26 00:42:00,
2013-08-25 19:57:00,86.6,74.0,29.76,SE,143,11.0,14.0,67,0.00,,,0.00,weatherlink.com 1.10,2013-08-26 00:57:00,
2013-08-25 20:12:00,85.9,74.0,29.77,SSE,148,6.0,12.0,68,0.00,,,0.00,weatherlink.com 1.10,2013-08-26 01:12:00,
2013-08-25 20:27:00,85.1,74.0,29.77,SE,124,7.0,10.0,69,0.00,,,0.00,weatherlink.com 1.10,2013-08-26 01:27:00,
2013-08-25 20:42:00,84.2,74.0,29.77,SE,124,6.0,12.0,71,0.00,,,0.00,weatherlink.com 1.10,2013-08-26 01:42:00,
2013-08-25 20:57:00,83.0,74.0,29.78,SE,142,6.0,11.0,75,0.00,,,0.00,weatherlink.com 1.10,2013-08-26 01:57:00,
2013-08-25 21:12:00,82.6,75.0,29.78,SE,134,9.0,12.0,77,0.00,,,0.00,weatherlink.com 1.10,2013-08-26 02:12:00,
2013-08-25 21:27:00,82.3,75.0,29.79,ESE,117,11.0,12.0,78,0.00,,,0.00,weatherlink.com 1.10,2013-08-26 02:27:00,
2013-08-25 21:42:00,82.0,75.0,29.79,ESE,117,8.0,15.0,79,0.00,,,0.00,weatherlink.com 1.10,2013-08-26 02:42:00,
2013-08-25 21:57:00,81.7,75.0,29.79,SSE,163,12.0,14.0,79,0.00,,,0.00,weatherlink.com 1.10,2013-08-26 02:57:00,
2013-08-25 22:12:00,81.5,74.0,29.80,SSE,163,7.0,15.0,79,0.00,,,0.00,weatherlink.com 1.10,2013-08-26 03:12:00,
2013-08-25 22:27:00,81.3,74.0,29.80,SSE,166,12.0,15.0,79,0.00,,,0.00,weatherlink.com 1.10,2013-08-26 03:27:00,
2013-08-25 22:42:00,81.1,74.0,29.80,SE,129,12.0,14.0,79,0.00,,,0.00,weatherlink.com 1.10,2013-08-26 03:42:00,
2013-08-25 22:57:00,80.8,73.0,29.80,SSE,155,11.0,16.0,78,0.00,,,0.00,weatherlink.com 1.10,2013-08-26 03:57:00,
2013-08-25 23:12:00,80.8,73.0,29.80,SSW,196,6.0,15.0,77,0.00,,,0.00,weatherlink.com 1.10,2013-08-26 04:12:00,
2013-08-25 23:27:00,81.0,73.0,29.80,South,181,12.0,15.0,76,0.00,,,0.00,weatherlink.com 1.10,2013-08-26 04:27:00,
2013-08-25 23:42:00,81.1,73.0,29.80,SW,214,10.0,14.0,75,0.00,,,0.00,weatherlink.com 1.10,2013-08-26 04:42:00,
2013-08-25 23:57:00,80.7,72.0,29.80,SE,138,5.0,14.0,75,0.00,,,0.00,weatherlink.com 1.10,2013-08-26 04:57:00,